TimePST,TemperatureF,Dew PointF,Humidity,Sea Level PressureIn,VisibilityMPH,Wind Direction,Wind SpeedMPH,Gust SpeedMPH,PrecipitationIn,Events,Conditions,WindDirDegrees,DateUTC
12:53 AM,52.0,24.1,34,30.11,10.0,East,5.8,-,N/A,,Clear,80,2013-01-18 08:53:00
1:53 AM,59.0,19.0,21,30.11,10.0,ESE,5.8,-,N/A,,Clear,110,2013-01-18 09:53:00
2:53 AM,51.1,26.1,38,30.10,10.0,East,6.9,-,N/A,,Clear,100,2013-01-18 10:53:00
3:53 AM,52.0,24.1,34,30.09,10.0,ENE,4.6,-,N/A,,Clear,60,2013-01-18 11:53:00
4:53 AM,53.1,21.9,30,30.09,10.0,Calm,Calm,-,N/A,,Clear,0,2013-01-18 12:53:00
5:53 AM,60.1,19.0,20,30.09,10.0,Calm,Calm,-,N/A,,Clear,0,2013-01-18 13:53:00
6:53 AM,55.9,19.9,25,30.09,10.0,East,4.6,-,N/A,,Clear,80,2013-01-18 14:53:00
7:53 AM,55.9,24.1,29,30.10,10.0,ESE,3.5,-,N/A,,Clear,110,2013-01-18 15:53:00
8:53 AM,66.0,26.1,22,30.11,10.0,ESE,6.9,-,N/A,,Clear,120,2013-01-18 16:53:00
9:53 AM,72.0,23.0,16,30.11,10.0,SE,9.2,-,N/A,,Clear,140,2013-01-18 17:53:00
10:53 AM,75.9,21.0,13,30.09,10.0,ESE,20.7,-,N/A,,Clear,120,2013-01-18 18:53:00
11:53 AM,78.1,21.0,12,30.06,10.0,ESE,17.3,21.9,N/A,,Clear,120,2013-01-18 19:53:00
12:53 PM,79.0,19.9,11,30.04,10.0,SE,13.8,-,N/A,,Clear,140,2013-01-18 20:53:00
1:53 PM,69.1,28.9,22,30.05,10.0,West,11.5,-,N/A,,Clear,260,2013-01-18 21:53:00
2:53 PM,68.0,26.1,21,30.06,10.0,West,9.2,-,N/A,,Clear,270,2013-01-18 22:53:00
3:53 PM,66.9,25.0,21,30.06,10.0,West,3.5,-,N/A,,Clear,280,2013-01-18 23:53:00
4:53 PM,64.9,25.0,22,30.07,10.0,Calm,Calm,-,N/A,,Clear,0,2013-01-19 00:53:00
5:53 PM,62.1,25.0,24,30.08,10.0,Calm,Calm,-,N/A,,Clear,0,2013-01-19 01:53:00
6:53 PM,60.1,26.1,27,30.09,10.0,NE,3.5,-,N/A,,Clear,50,2013-01-19 02:53:00
7:53 PM,52.0,28.9,41,30.10,10.0,Calm,Calm,-,N/A,,Clear,0,2013-01-19 03:53:00
8:53 PM,52.0,30.0,43,30.10,10.0,Calm,Calm,-,N/A,,Clear,0,2013-01-19 04:53:00
9:53 PM,50.0,28.0,43,30.10,10.0,East,4.6,-,N/A,,Clear,90,2013-01-19 05:53:00
10:53 PM,57.9,23.0,26,30.09,10.0,SE,5.8,-,N/A,,Clear,130,2013-01-19 06:53:00
11:53 PM,61.0,19.9,21,30.08,10.0,ENE,3.5,-,N/A,,Clear,60,2013-01-19 07:53:00